createdAt,value
2022-07-28T00:00:28.093Z,87.19
2022-07-28T00:03:07.470Z,87.17
2022-07-28T00:05:36.093Z,87.00
2022-07-28T00:08:05.572Z,86.87
2022-07-28T00:10:34.055Z,86.31
2022-07-28T00:13:02.528Z,85.98
2022-07-28T00:15:32.499Z,85.68
2022-07-28T00:18:01.320Z,85.85
2022-07-28T00:20:31.009Z,85.97
2022-07-28T00:22:59.486Z,85.90
2022-07-28T00:25:27.910Z,86.05
2022-07-28T00:27:56.410Z,86.13
2022-07-28T00:30:24.971Z,86.28
2022-07-28T00:32:53.646Z,86.08
2022-07-28T00:35:30.513Z,86.28
2022-07-28T00:38:01.195Z,86.35
2022-07-28T00:40:48.438Z,86.34
2022-07-28T00:43:16.881Z,86.32
2022-07-28T00:45:45.472Z,86.27
2022-07-28T00:48:13.928Z,86.34
2022-07-28T00:50:43.848Z,85.92
2022-07-28T00:53:12.548Z,85.63
2022-07-28T00:56:03.288Z,84.98
2022-07-28T00:58:31.038Z,85.21
2022-07-28T01:00:59.652Z,85.53
2022-07-28T01:03:29.617Z,85.45
2022-07-28T01:06:16.726Z,85.25
2022-07-28T01:09:22.056Z,85.19
2022-07-28T01:12:09.404Z,85.19
2022-07-28T01:14:49.846Z,85.24
2022-07-28T01:17:39.233Z,85.26
2022-07-28T01:20:34.667Z,85.09
2022-07-28T01:23:26.205Z,84.89
2022-07-28T01:26:23.647Z,85.36
2022-07-28T01:29:01.169Z,85.18
2022-07-28T01:31:43.944Z,85.60
2022-07-28T01:34:23.873Z,85.92
2022-07-28T01:37:05.020Z,86.28
2022-07-28T01:39:36.556Z,85.95
2022-07-28T01:42:07.988Z,86.03
2022-07-28T01:44:41.416Z,85.91
2022-07-28T01:47:11.945Z,85.73
2022-07-28T01:49:44.249Z,85.53
2022-07-28T01:52:13.961Z,85.15
2022-07-28T01:54:46.183Z,85.20
2022-07-28T01:57:18.117Z,84.90
2022-07-28T01:59:48.610Z,84.65
2022-07-28T02:02:21.508Z,84.59
2022-07-28T02:04:51.538Z,84.44
2022-07-28T02:07:21.435Z,84.26
2022-07-28T02:09:50.456Z,84.05
2022-07-28T02:12:20.477Z,83.99
2022-07-28T02:14:50.793Z,84.21
2022-07-28T02:17:25.657Z,83.98
2022-07-28T02:19:55.410Z,82.98
2022-07-28T02:22:27.048Z,82.73
2022-07-28T02:24:56.206Z,83.30
2022-07-28T02:27:24.580Z,83.55
2022-07-28T02:30:11.394Z,83.44
2022-07-28T02:32:55.584Z,83.49
2022-07-28T02:35:46.062Z,82.84
2022-07-28T02:38:28.278Z,83.16
2022-07-28T02:41:02.827Z,83.17
2022-07-28T02:43:50.037Z,83.31
2022-07-28T02:46:22.411Z,83.57
2022-07-28T02:48:55.119Z,83.57
2022-07-28T02:51:28.890Z,83.82
2022-07-28T02:53:58.713Z,83.92
2022-07-28T02:56:29.029Z,84.04
2022-07-28T02:58:58.852Z,84.22
2022-07-28T03:01:27.594Z,84.29
2022-07-28T03:03:58.034Z,84.10
2022-07-28T03:06:28.797Z,83.67
2022-07-28T03:08:58.133Z,83.33
2022-07-28T03:11:27.877Z,83.43
2022-07-28T03:13:56.306Z,83.38
2022-07-28T03:16:24.883Z,83.61
2022-07-28T03:18:53.325Z,83.94
2022-07-28T03:21:21.745Z,83.97
2022-07-28T03:23:51.825Z,83.99
2022-07-28T03:26:27.912Z,84.10
2022-07-28T03:28:58.122Z,84.42
2022-07-28T03:31:29.167Z,84.49
2022-07-28T03:33:57.883Z,84.76
2022-07-28T03:36:31.827Z,85.09
2022-07-28T03:39:06.262Z,85.25
2022-07-28T03:41:35.475Z,85.57
2022-07-28T03:44:04.661Z,85.76
2022-07-28T03:46:34.049Z,85.79
2022-07-28T03:49:02.546Z,86.11
2022-07-28T03:51:33.117Z,86.54
2022-07-28T03:54:01.673Z,86.90
2022-07-28T03:56:30.178Z,87.19
2022-07-28T03:58:58.637Z,87.39
2022-07-28T04:01:27.093Z,87.73
2022-07-28T04:03:55.473Z,87.90
2022-07-28T04:06:24.078Z,88.05
2022-07-28T04:08:52.441Z,87.91
2022-07-28T04:11:20.813Z,87.84
2022-07-28T04:13:49.546Z,87.96
2022-07-28T04:16:18.155Z,87.82
2022-07-28T04:18:47.650Z,88.12
2022-07-28T04:21:16.462Z,88.31
2022-07-28T04:23:44.872Z,88.54
2022-07-28T04:26:13.833Z,88.63
2022-07-28T04:28:42.272Z,88.78
2022-07-28T04:31:10.776Z,88.68
2022-07-28T04:33:39.785Z,88.74
2022-07-28T04:36:08.347Z,88.14
2022-07-28T04:38:37.865Z,87.94
2022-07-28T04:41:06.501Z,87.78
2022-07-28T04:43:34.911Z,87.72
2022-07-28T04:46:03.230Z,87.76
2022-07-28T04:48:31.475Z,87.39
2022-07-28T04:50:59.879Z,87.28
2022-07-28T04:53:29.526Z,87.23
2022-07-28T04:55:58.231Z,87.44
2022-07-28T04:58:27.825Z,87.96
2022-07-28T05:00:59.247Z,88.36
2022-07-28T05:03:30.409Z,88.60
2022-07-28T05:06:01.007Z,88.69
2022-07-28T05:08:29.378Z,87.48
2022-07-28T05:10:57.733Z,86.24
2022-07-28T05:13:30.392Z,83.50
2022-07-28T05:16:02.935Z,82.65
2022-07-28T05:18:31.200Z,81.26
2022-07-28T05:20:59.585Z,81.00
2022-07-28T05:23:28.073Z,80.99
2022-07-28T05:25:56.974Z,81.16
2022-07-28T05:28:25.689Z,80.82
2022-07-28T05:30:54.439Z,79.83
2022-07-28T05:33:22.700Z,80.12
2022-07-28T05:36:00.039Z,80.44
2022-07-28T05:38:29.188Z,80.39
2022-07-28T05:40:58.102Z,80.04
2022-07-28T05:43:26.506Z,80.43
2022-07-28T05:45:54.983Z,80.04
2022-07-28T05:48:23.482Z,79.62
2022-07-28T05:50:51.689Z,79.18
2022-07-28T05:53:21.316Z,78.53
2022-07-28T05:56:00.633Z,77.98
2022-07-28T05:58:31.387Z,78.88
2022-07-28T06:01:03.780Z,77.86
2022-07-28T06:03:38.441Z,77.65
2022-07-28T06:06:15.019Z,77.30
2022-07-28T06:08:46.765Z,76.18
2022-07-28T06:11:21.651Z,75.84
2022-07-28T06:13:52.572Z,73.84
2022-07-28T06:16:23.055Z,74.82
2022-07-28T06:18:52.622Z,74.22
2022-07-28T06:21:23.529Z,73.60
2022-07-28T06:23:51.979Z,73.44
2022-07-28T06:26:23.480Z,73.55
2022-07-28T06:28:52.283Z,73.61
2022-07-28T06:31:20.728Z,74.07
2022-07-28T06:33:49.015Z,73.19
2022-07-28T06:36:17.451Z,71.42
2022-07-28T06:38:45.718Z,71.54
2022-07-28T06:41:13.971Z,71.43
2022-07-28T06:43:42.288Z,71.71
2022-07-28T06:46:10.645Z,72.12
2022-07-28T06:48:39.634Z,72.21
2022-07-28T06:51:08.206Z,71.71
2022-07-28T06:53:36.453Z,69.33
2022-07-28T06:56:05.400Z,69.79
2022-07-28T06:58:34.513Z,70.74
2022-07-28T07:01:08.010Z,70.89
2022-07-28T07:03:36.550Z,70.23
2022-07-28T07:06:04.849Z,70.48
2022-07-28T07:08:34.023Z,69.31
2022-07-28T07:11:02.444Z,69.35
2022-07-28T07:13:30.771Z,69.38
2022-07-28T07:15:59.170Z,67.83
2022-07-28T07:18:27.787Z,67.20
2022-07-28T07:20:57.922Z,65.91
2022-07-28T07:23:26.124Z,63.91
2022-07-28T07:25:54.582Z,63.63
2022-07-28T07:28:22.864Z,62.39
2022-07-28T07:30:51.160Z,64.00
2022-07-28T07:33:19.763Z,64.83
2022-07-28T07:35:48.834Z,65.50
2022-07-28T07:38:17.246Z,65.52
2022-07-28T07:40:45.646Z,63.79
2022-07-28T07:43:14.046Z,63.07
2022-07-28T07:45:42.337Z,63.53
2022-07-28T07:48:10.709Z,63.38
2022-07-28T07:50:39.069Z,64.53
2022-07-28T07:53:07.313Z,65.03
2022-07-28T07:55:37.734Z,63.99
2022-07-28T07:58:07.169Z,63.92
2022-07-28T08:00:35.985Z,64.37
2022-07-28T08:03:04.788Z,64.41
2022-07-28T08:05:39.879Z,62.60
2022-07-28T08:08:08.883Z,62.12
2022-07-28T08:10:39.534Z,60.83
2022-07-28T08:13:08.406Z,61.04
2022-07-28T08:15:36.860Z,61.50
2022-07-28T08:18:05.243Z,62.45
2022-07-28T08:20:33.491Z,61.95
2022-07-28T08:23:01.830Z,61.83
2022-07-28T08:25:30.030Z,62.37
2022-07-28T08:27:58.286Z,62.15
2022-07-28T08:30:31.994Z,61.07
2022-07-28T08:33:03.143Z,61.06
2022-07-28T08:35:34.626Z,62.29
2022-07-28T08:38:07.185Z,61.40
2022-07-28T08:40:38.836Z,59.17
2022-07-28T08:43:23.710Z,58.61
2022-07-28T08:45:58.067Z,57.50
2022-07-28T08:48:31.627Z,56.57
2022-07-28T08:51:09.710Z,56.35
2022-07-28T08:53:40.301Z,57.76
2022-07-28T08:56:12.414Z,58.09
2022-07-28T08:58:41.072Z,57.09
2022-07-28T09:01:11.061Z,56.50
2022-07-28T09:03:39.835Z,55.42
2022-07-28T09:06:08.460Z,54.72
2022-07-28T09:08:37.404Z,54.15
2022-07-28T09:11:08.360Z,54.97
2022-07-28T09:13:36.829Z,54.34
2022-07-28T09:16:07.009Z,54.65
2022-07-28T09:18:35.505Z,54.42
2022-07-28T09:21:03.889Z,55.34
2022-07-28T09:23:46.633Z,54.89
2022-07-28T09:26:15.632Z,55.70
2022-07-28T09:28:55.273Z,56.19
2022-07-28T09:31:26.109Z,52.78
2022-07-28T09:33:56.140Z,53.72
2022-07-28T09:36:24.659Z,54.19
2022-07-28T09:38:54.323Z,54.45
2022-07-28T09:41:24.075Z,54.51
2022-07-28T09:43:55.372Z,53.86
2022-07-28T09:46:26.138Z,53.26
2022-07-28T09:49:01.324Z,52.45
2022-07-28T09:51:31.943Z,51.86
2022-07-28T09:54:12.710Z,51.51
2022-07-28T09:56:44.289Z,51.42
2022-07-28T09:59:14.898Z,50.07
2022-07-28T10:01:52.685Z,50.51
2022-07-28T10:04:31.757Z,51.09
2022-07-28T10:07:14.160Z,52.06
2022-07-28T10:09:43.457Z,52.86
2022-07-28T10:12:20.956Z,47.34
2022-07-28T10:14:52.063Z,47.74
2022-07-28T10:17:34.361Z,48.92
2022-07-28T10:20:06.176Z,48.82
2022-07-28T10:22:42.782Z,49.83
2022-07-28T10:25:14.395Z,51.09
2022-07-28T10:27:47.632Z,47.80
2022-07-28T10:30:16.245Z,47.81
2022-07-28T10:32:46.272Z,46.68
2022-07-28T10:35:17.606Z,47.23
2022-07-28T10:37:54.150Z,46.96
2022-07-28T10:40:26.849Z,46.35
2022-07-28T10:42:56.740Z,47.00
2022-07-28T10:45:42.032Z,47.06
2022-07-28T10:48:15.569Z,45.42
2022-07-28T10:50:45.028Z,47.75
2022-07-28T10:53:26.415Z,45.79
2022-07-28T10:56:07.729Z,48.07
2022-07-28T10:59:10.522Z,48.94
2022-07-28T11:01:50.511Z,46.69
2022-07-28T11:04:41.060Z,46.11
2022-07-28T11:07:15.259Z,46.72
2022-07-28T11:09:44.868Z,45.99
2022-07-28T11:12:16.041Z,45.30
2022-07-28T11:14:45.103Z,44.15
2022-07-28T11:17:15.000Z,43.83
2022-07-28T11:22:35.003Z,44.46
2022-07-28T11:25:18.444Z,42.16
2022-07-28T11:27:50.916Z,44.92
2022-07-28T11:30:21.441Z,45.61
2022-07-28T11:32:55.839Z,44.80
2022-07-28T11:35:25.577Z,44.57
2022-07-28T11:38:03.320Z,41.27
2022-07-28T11:40:42.591Z,40.18
2022-07-28T11:43:36.898Z,41.62
2022-07-28T11:46:11.191Z,42.42
2022-07-28T11:48:43.736Z,41.36
2022-07-28T11:51:13.360Z,43.40
2022-07-28T11:53:53.753Z,44.25
2022-07-28T11:56:27.937Z,43.88
2022-07-28T11:59:01.328Z,44.65
2022-07-28T12:01:31.985Z,46.24
2022-07-28T12:04:01.578Z,41.99
2022-07-28T12:06:37.522Z,42.02
2022-07-28T12:09:08.423Z,43.24
2022-07-28T12:11:38.915Z,43.31
2022-07-28T12:14:09.693Z,43.34
2022-07-28T12:16:41.253Z,43.47
2022-07-28T12:19:11.283Z,41.65
2022-07-28T12:21:47.697Z,41.76
2022-07-28T12:24:20.113Z,41.56
2022-07-28T12:26:50.574Z,43.66
2022-07-28T12:29:20.776Z,44.27
2022-07-28T12:32:01.075Z,42.55
2022-07-28T12:34:31.094Z,42.81
2022-07-28T12:37:04.569Z,42.26
2022-07-28T12:39:42.851Z,40.67
2022-07-28T12:42:13.397Z,39.70
2022-07-28T12:44:43.958Z,40.15
2022-07-28T12:47:13.767Z,38.61
2022-07-28T12:49:44.345Z,39.54
2022-07-28T12:52:24.813Z,40.29
2022-07-28T12:54:55.774Z,42.71
2022-07-28T12:57:48.146Z,44.25
2022-07-28T13:00:22.882Z,43.76
2022-07-28T13:02:56.187Z,43.90
2022-07-28T13:05:33.211Z,42.82
2022-07-28T13:08:03.623Z,40.80
2022-07-28T13:10:33.516Z,39.04
2022-07-28T13:13:07.775Z,41.17
2022-07-28T13:15:36.275Z,40.39
2022-07-28T13:18:05.163Z,40.24
2022-07-28T13:20:50.718Z,42.40
2022-07-28T13:23:19.054Z,42.23
2022-07-28T13:25:47.891Z,42.06
2022-07-28T13:28:28.573Z,42.55
2022-07-28T13:30:56.936Z,43.71
2022-07-28T13:33:26.948Z,43.41
2022-07-28T13:35:56.698Z,44.54
2022-07-28T13:38:25.148Z,45.29
2022-07-28T13:40:53.463Z,44.81
2022-07-28T13:43:21.843Z,43.76
2022-07-28T13:45:50.180Z,45.10
2022-07-28T13:48:18.520Z,43.63
2022-07-28T13:50:48.163Z,42.40
2022-07-28T13:53:17.867Z,42.75
2022-07-28T13:55:46.416Z,43.60
2022-07-28T13:58:15.341Z,43.59
2022-07-28T14:00:43.889Z,42.14
2022-07-28T14:03:12.964Z,42.04
2022-07-28T14:05:42.276Z,43.23
2022-07-28T14:08:12.539Z,43.03
2022-07-28T14:10:40.914Z,41.15
2022-07-28T14:13:16.582Z,39.60
2022-07-28T14:15:47.124Z,39.17
2022-07-28T14:18:15.377Z,40.61
2022-07-28T14:20:43.703Z,42.28
2022-07-28T14:23:11.926Z,42.31
2022-07-28T14:25:49.213Z,41.27
2022-07-28T14:28:18.716Z,42.09
2022-07-28T14:30:46.957Z,42.04
2022-07-28T14:33:15.307Z,42.60
2022-07-28T14:35:43.633Z,42.75
2022-07-28T14:38:51.178Z,43.71
2022-07-28T14:41:01.905Z,42.14
2022-07-28T14:43:30.257Z,41.53
2022-07-28T14:46:13.611Z,41.76
2022-07-28T14:48:46.386Z,43.19
2022-07-28T14:51:15.947Z,43.89
2022-07-28T14:53:46.416Z,43.32
2022-07-28T14:56:20.112Z,42.67
2022-07-28T14:58:48.376Z,43.66
2022-07-28T15:01:16.732Z,44.02
2022-07-28T15:03:45.603Z,44.03
2022-07-28T15:06:13.845Z,43.33
2022-07-28T15:08:42.049Z,43.45
2022-07-28T15:11:10.423Z,43.09
2022-07-28T15:13:38.714Z,44.70
2022-07-28T15:16:07.309Z,44.04
2022-07-28T15:18:36.035Z,44.61
2022-07-28T15:21:06.694Z,44.67
2022-07-28T15:23:34.893Z,43.26
2022-07-28T15:26:03.185Z,42.96
2022-07-28T15:28:31.553Z,43.26
2022-07-28T15:30:59.953Z,44.34
2022-07-28T15:33:28.274Z,44.87
2022-07-28T15:36:00.596Z,44.70
2022-07-28T15:38:31.501Z,45.52
2022-07-28T15:41:00.145Z,44.31
2022-07-28T15:43:30.734Z,45.19
2022-07-28T15:46:06.176Z,45.14
2022-07-28T15:48:34.961Z,45.11
2022-07-28T15:51:03.327Z,44.93
2022-07-28T15:53:31.715Z,43.91
2022-07-28T15:56:00.019Z,45.39
2022-07-28T15:58:28.391Z,46.17
2022-07-28T16:00:56.709Z,46.08
2022-07-28T16:03:30.679Z,46.46
2022-07-28T16:05:59.300Z,46.39
2022-07-28T16:08:27.682Z,45.87
2022-07-28T16:10:56.018Z,46.86
2022-07-28T16:13:33.391Z,46.73
2022-07-28T16:16:10.779Z,46.19
2022-07-28T16:18:42.875Z,46.40
2022-07-28T16:21:11.596Z,46.95
2022-07-28T16:23:39.937Z,46.72
2022-07-28T16:26:09.529Z,46.93
2022-07-28T16:28:38.099Z,47.08
2022-07-28T16:31:06.542Z,46.73
2022-07-28T16:33:34.854Z,46.95
2022-07-28T16:36:03.524Z,46.67
2022-07-28T16:38:31.800Z,46.50
2022-07-28T16:41:00.086Z,46.23
2022-07-28T16:43:28.581Z,46.61
2022-07-28T16:45:56.912Z,46.97
2022-07-28T16:48:25.177Z,48.07
2022-07-28T16:50:56.826Z,47.84
2022-07-28T16:53:25.206Z,47.25
2022-07-28T16:55:53.606Z,47.01
2022-07-28T16:58:22.717Z,47.03
2022-07-28T17:00:51.014Z,47.83
2022-07-28T17:03:19.345Z,47.86
2022-07-28T17:05:48.653Z,48.26
2022-07-28T17:08:16.962Z,48.44
2022-07-28T17:10:46.757Z,48.49
2022-07-28T17:13:16.442Z,49.00
2022-07-28T17:15:44.717Z,48.89
2022-07-28T17:18:13.076Z,48.83
2022-07-28T17:20:42.100Z,49.22
2022-07-28T17:23:10.515Z,49.44
2022-07-28T17:26:09.015Z,50.64
2022-07-28T17:28:27.563Z,51.70
2022-07-28T17:30:56.105Z,51.74
2022-07-28T17:33:26.918Z,52.06
2022-07-28T17:35:56.301Z,52.49
2022-07-28T17:38:30.986Z,53.57
2022-07-28T17:41:04.479Z,53.48
2022-07-28T17:43:33.070Z,53.72
2022-07-28T17:46:03.011Z,53.64
2022-07-28T17:48:38.527Z,54.12
2022-07-28T17:51:07.022Z,54.55
2022-07-28T17:53:39.044Z,54.73
2022-07-28T17:56:08.998Z,54.88
2022-07-28T17:58:38.311Z,55.16
2022-07-28T18:01:12.380Z,55.59
2022-07-28T18:03:58.060Z,55.80
2022-07-28T18:06:32.700Z,56.13
2022-07-28T18:09:08.311Z,56.62
2022-07-28T18:11:57.406Z,56.89
2022-07-28T18:14:28.384Z,57.52
2022-07-28T18:16:57.980Z,58.00
2022-07-28T18:19:27.211Z,58.08
2022-07-28T18:21:56.745Z,58.37
2022-07-28T18:24:26.598Z,59.11
2022-07-28T18:26:54.999Z,59.61
2022-07-28T18:29:24.845Z,59.88
2022-07-28T18:31:53.646Z,60.45
2022-07-28T18:34:24.744Z,60.57
2022-07-28T18:36:54.509Z,61.07
2022-07-28T18:39:22.983Z,61.53
2022-07-28T18:41:55.499Z,62.06
2022-07-28T18:44:23.769Z,62.45
2022-07-28T18:46:52.192Z,63.04
2022-07-28T18:49:21.763Z,63.69
2022-07-28T18:51:50.103Z,64.41
2022-07-28T18:54:27.148Z,65.13
2022-07-28T18:56:56.458Z,65.70
2022-07-28T18:59:25.121Z,66.18
2022-07-28T19:01:53.556Z,66.50
2022-07-28T19:04:22.895Z,66.72
2022-07-28T19:06:51.535Z,67.38
2022-07-28T19:09:20.165Z,67.94
2022-07-28T19:11:48.505Z,68.28
2022-07-28T19:14:17.558Z,68.95
2022-07-28T19:16:46.357Z,69.66
2022-07-28T19:19:14.839Z,70.08
2022-07-28T19:21:43.870Z,70.66
2022-07-28T19:24:14.186Z,71.13
2022-07-28T19:26:45.363Z,71.39
2022-07-28T19:29:14.090Z,72.04
2022-07-28T19:31:42.981Z,72.19
2022-07-28T19:34:11.511Z,72.73
2022-07-28T19:36:41.851Z,72.92
2022-07-28T19:39:12.315Z,73.37
2022-07-28T19:41:40.933Z,74.03
2022-07-28T19:44:09.616Z,74.33
2022-07-28T19:46:39.274Z,74.74
2022-07-28T19:49:09.369Z,74.99
2022-07-28T19:51:38.383Z,75.32
2022-07-28T19:54:06.737Z,75.42
2022-07-28T19:56:35.144Z,75.56
2022-07-28T19:59:03.397Z,75.93
2022-07-28T20:01:31.841Z,76.25
2022-07-28T20:04:05.001Z,76.58
2022-07-28T20:06:34.517Z,76.99
2022-07-28T20:09:04.449Z,77.33
2022-07-28T20:11:33.203Z,77.67
2022-07-28T20:14:01.706Z,77.80
2022-07-28T20:16:30.608Z,78.25
2022-07-28T20:18:59.547Z,78.39
2022-07-28T20:21:27.890Z,78.64
2022-07-28T20:23:57.311Z,78.68
2022-07-28T20:26:26.966Z,78.93
2022-07-28T20:28:58.481Z,79.36
2022-07-28T20:31:27.090Z,79.68
2022-07-28T20:33:56.671Z,79.94
2022-07-28T20:36:29.503Z,80.02
2022-07-28T20:38:58.271Z,80.15
2022-07-28T20:41:26.510Z,80.26
2022-07-28T20:44:26.052Z,80.47
2022-07-28T20:46:43.040Z,80.71
2022-07-28T20:49:11.295Z,80.89
2022-07-28T20:51:39.781Z,81.16
2022-07-28T20:54:19.515Z,81.37
2022-07-28T20:56:47.931Z,81.33
2022-07-28T20:59:16.444Z,81.25
2022-07-28T21:01:44.806Z,81.44
2022-07-28T21:04:13.683Z,81.58
2022-07-28T21:06:51.161Z,81.85
2022-07-28T21:09:21.221Z,82.05
2022-07-28T21:11:49.583Z,82.18
2022-07-28T21:14:19.028Z,81.99
2022-07-28T21:16:47.775Z,82.27
2022-07-28T21:19:16.056Z,82.20
2022-07-28T21:21:44.283Z,82.29
2022-07-28T21:24:12.631Z,82.26
2022-07-28T21:26:42.934Z,82.68
2022-07-28T21:29:12.476Z,82.73
2022-07-28T21:32:02.326Z,82.79
2022-07-28T21:34:33.965Z,83.01
2022-07-28T21:37:07.079Z,83.27
2022-07-28T21:39:36.740Z,83.19
2022-07-28T21:42:08.094Z,83.44
2022-07-28T21:44:37.628Z,83.32
2022-07-28T21:47:06.097Z,83.59
2022-07-28T21:49:34.378Z,83.66
2022-07-28T21:52:02.597Z,83.80
2022-07-28T21:54:30.999Z,84.01
2022-07-28T21:56:59.274Z,84.09
2022-07-28T21:59:27.471Z,84.29
2022-07-28T22:01:55.773Z,84.47
2022-07-28T22:04:24.059Z,84.66
2022-07-28T22:06:54.201Z,84.85
2022-07-28T22:09:22.637Z,84.93
2022-07-28T22:11:50.925Z,85.53
2022-07-28T22:14:19.454Z,86.20
2022-07-28T22:16:48.051Z,86.17
2022-07-28T22:19:16.250Z,86.35
2022-07-28T22:21:44.443Z,86.74
2022-07-28T22:24:13.045Z,87.17
2022-07-28T22:26:41.494Z,87.21
2022-07-28T22:29:09.673Z,87.73
2022-07-28T22:31:38.000Z,87.65
2022-07-28T22:34:06.235Z,87.69
2022-07-28T22:36:34.482Z,88.10
2022-07-28T22:39:02.748Z,88.33
2022-07-28T22:41:30.974Z,88.25
2022-07-28T22:43:59.257Z,88.37
2022-07-28T22:46:27.609Z,88.54
2022-07-28T22:48:55.897Z,88.89
2022-07-28T22:51:24.158Z,88.85
2022-07-28T22:53:52.400Z,88.96
2022-07-28T22:56:20.642Z,88.89
2022-07-28T22:58:49.924Z,88.91
2022-07-28T23:01:18.189Z,89.11
2022-07-28T23:03:47.393Z,89.17
2022-07-28T23:06:15.973Z,89.17
2022-07-28T23:08:44.211Z,89.23
2022-07-28T23:11:12.378Z,89.22
2022-07-28T23:13:41.099Z,89.31
2022-07-28T23:16:11.004Z,89.42
2022-07-28T23:18:40.514Z,89.54
2022-07-28T23:21:09.197Z,89.63
2022-07-28T23:23:38.105Z,89.55
2022-07-28T23:26:06.314Z,89.72
2022-07-28T23:28:36.518Z,89.71
2022-07-28T23:31:05.547Z,89.82
2022-07-28T23:33:55.061Z,90.15
2022-07-28T23:36:27.455Z,90.14
2022-07-28T23:38:57.729Z,89.98
2022-07-28T23:41:27.137Z,90.50
2022-07-28T23:43:55.588Z,90.22
2022-07-28T23:46:24.617Z,90.52
2022-07-28T23:48:53.120Z,90.74
2022-07-28T23:51:22.615Z,90.73
2022-07-28T23:54:09.431Z,90.96
2022-07-28T23:56:38.407Z,91.25
2022-07-28T23:59:09.246Z,91.05
